首页
METAR-TAF:

METAR-TAF

机场 :

圣约翰斯国际机场

聖約翰斯, 紐芬蘭-拉布拉多, 加拿大

纬度: 47-37N, 经度: 052-44W, 海拔: 134米

当前天气观测

该预报发布于16分钟前的11:00 UTC
风速11节,风向南转南东,有时为17节阵风
温度 4°C
湿度 100%
气压 1031 hPa
能見度: 24.1公里
少量云层高于500英尺
少量云层高于3000英尺
散云层高于11000英尺
多云层高于24000英尺

METAR: CYYT 211100Z 15011G17KT 15SM FEW005 FEW030 SCT110 BKN240 04/04 A3045 RMK SF1SC1AC2CI2 SF TR ACC ASOCTD SLP318

时间: 08:46 (11:16 UTC)

预报

该预报发布于2小时和30分钟前的08:46 UTC
预报有效从21日的 08点(UTC)到 22日的 06点(UTC)
风速7节,风向南转南东
能見度: 9.7公里
散云层高于700英尺
轻雾
短暂存在
从 21日的 08点(UTC)到 21日的 12点(UTC)
能見度: 3.2公里
多云层高于700英尺
轻雾
几率 40%
从 21日的 08点(UTC)到 21日的 12点(UTC)
能見度: 0.8公里
多云层高于200英尺
从 21日的 1200点(UTC)
风速12节,风向东南
能見度: 10公里
阴天层高于3000英尺
短暂存在
从 21日的 12点(UTC)到 21日的 17点(UTC)
能見度: 4.8公里
阴天层高于1500英尺
小雨, 轻雾
几率 30%
从 21日的 12点(UTC)到 21日的 17点(UTC)
能見度: 1.2公里
多云层高于300英尺
轻雾
从 21日的 1700点(UTC)
风速15节,风向南转南东
能見度: 1.6公里
阴天层高于300英尺
小毛毛雨, 轻雾
从 21日的 2000点(UTC)
风速15节,风向南转西南,有时为25节阵风
能見度: 4.8公里
阴天层高于700英尺
小毛毛雨, 轻雾
从 22日的 0100点(UTC)
风速20节,风向西南
能見度: 0.8公里
层高于200英尺
小毛毛雨, 雾

TAF: CYYT 210846Z 2108/2206 16007KT 6SM BR SCT007 TEMPO 2108/2112 2SM BR BKN007 PROB40 2108/2112 1/2SM FG BKN002 FM211200 14012KT P6SM OVC030 TEMPO 2112/2117 3SM -RA BR OVC015 PROB30 2112/2117 3/4SM BR BKN003 FM211700 15015KT 1SM -DZ BR OVC003 FM212000 20015G25KT 3SM -DZ BR OVC007 FM220100 22020KT 1/2SM -DZ FG VV002 RMK NXT FCST BY 211200Z

超过4000个机场的气象观测和天气预报(METAR&TAF报告)。

可查询的气象台以黄色和红色小点在地图上表示。

将鼠标移到小点上方,可查看气象台名称。

然后点击查看天气观测和预报。

如需切换地图:点击带黑十字的绿色按钮放大地图;点击带横线的绿色按钮缩小地图;或者点击绿色箭头查看邻近地区的地图。


METAR-TAF: